Time;durP1;ratioP1;P1;durP2;ratioP2;P2;SDS_P1;SDS_P2;PMS_P1;PMS_P2;Temp;Humidity;BMP_temperature;BMP_pressure;BME280_temperature;BME280_humidity;BME280_pressure;Samples;Min_cycle;Max_cycle;Signal;HPM_P1;HPM_P2
2022/10/04 10:14:53;;;;;;;4.80;2.50;;;;;;;12.03;82.06;99393.33;1814645;75;63531;-55
2022/10/04 10:17:36;;;;;;;13.22;2.95;;;;;;;12.00;82.25;99389.07;1797896;78;22224;-49
2022/10/04 10:20:19;;;;;;;3.92;2.02;;;;;;;12.05;82.23;99392.77;1798696;77;21011;-49
2022/10/04 10:23:26;;;;;;;9.73;2.77;;;;;;;12.01;80.20;99396.53;1808491;78;21054;-49
2022/10/04 10:26:22;;;;;;;4.10;2.50;;;;;;;11.98;79.66;99400.17;1780540;79;21014;-52
2022/10/04 10:29:16;;;;;;;3.35;2.25;;;;;;;12.03;80.88;99396.80;1808522;78;20996;-43
2022/10/04 10:32:05;;;;;;;7.03;2.60;;;;;;;12.23;81.80;99407.95;1790451;78;21002;-44
2022/10/04 10:34:56;;;;;;;7.95;2.45;;;;;;;12.34;80.81;99398.91;1790115;78;21030;-53
2022/10/04 10:38:00;;;;;;;5.17;2.35;;;;;;;12.44;80.69;99405.78;1793458;77;21036;-53
2022/10/04 10:40:58;;;;;;;10.25;2.75;;;;;;;12.36;79.63;99404.09;1801212;78;21472;-48
2022/10/04 10:43:45;;;;;;;7.22;2.50;;;;;;;12.36;79.23;99408.05;1770475;77;20987;-52
2022/10/04 10:46:52;;;;;;;8.40;2.25;;;;;;;12.39;79.22;99409.20;1781621;77;21100;-50
2022/10/04 10:50:14;;;;;;;6.08;2.17;;;;;;;12.38;79.58;99410.12;1795842;78;21487;-45
2022/10/04 10:53:09;;;;;;;7.92;2.42;;;;;;;12.51;79.06;99416.33;1806270;78;21604;-52
2022/10/04 10:56:07;;;;;;;46.00;21.55;;;;;;;12.78;78.88;99422.18;1774506;79;21026;-42
2022/10/04 10:59:21;;;;;;;10.95;4.78;;;;;;;13.01;76.34;99414.98;1772281;79;21539;-50
2022/10/04 11:02:15;;;;;;;6.42;2.20;;;;;;;13.11;75.85;99410.44;1765863;78;21063;-53
2022/10/04 11:05:06;;;;;;;4.12;2.02;;;;;;;13.05;75.45;99418.28;1829662;78;21550;-53
2022/10/04 11:07:44;;;;;;;7.90;3.80;;;;;;;13.00;74.20;99427.80;1761451;79;21046;-51
2022/10/04 11:10:42;;;;;;;;;;;;;;;13.08;75.75;99422.50;1778722;78;21077;-44
2022/10/04 11:13:35;;;;;;;6.35;2.20;;;;;;;13.00;74.50;99423.83;1792457;78;20101;-44
2022/10/04 11:16:23;;;;;;;5.72;2.50;;;;;;;13.11;75.75;99432.88;1804119;79;21018;-51
2022/10/04 11:18:57;;;;;;;8.10;2.67;;;;;;;13.04;73.99;99438.56;1792809;78;20948;-47
2022/10/04 11:22:11;;;;;;;5.87;2.15;;;;;;;13.08;74.11;99433.93;1787604;77;20959;-48
2022/10/04 11:24:51;;;;;;;6.85;2.50;;;;;;;13.01;73.47;99430.83;1808398;77;20988;-54
2022/10/04 11:27:27;;;;;;;3.33;2.17;;;;;;;13.28;73.22;99439.27;1810466;78;20948;-50
2022/10/04 11:30:11;;;;;;;9.20;1.92;;;;;;;13.38;73.13;99433.77;1782920;78;21526;-43
2022/10/04 11:33:16;;;;;;;4.92;2.50;;;;;;;13.41;72.62;99438.03;1817505;78;20996;-44
2022/10/04 11:35:54;;;;;;;2.40;1.82;;;;;;;13.34;71.21;99443.33;1796316;79;21440;-48
2022/10/04 11:38:46;;;;;;;5.92;2.45;;;;;;;13.25;70.11;99436.33;1730870;81;20975;-51
2022/10/04 11:41:39;;;;;;;5.83;2.00;;;;;;;14.25;72.45;99446.59;1822395;77;21006;-47
2022/10/04 11:44:31;;;;;;;8.23;1.47;;;;;;;15.74;69.30;99448.00;1739768;81;21022;-55
2022/10/04 11:47:07;;;;;;;1.92;1.37;;;;;;;17.29;66.51;99451.11;1716399;82;21022;-50
2022/10/04 11:49:55;;;;;;;5.35;1.72;;;;;;;17.52;62.05;99449.71;1719385;82;21007;-45
2022/10/04 11:53:08;;;;;;;5.80;1.60;;;;;;;17.54;61.60;99453.95;1737795;80;21003;-45
2022/10/04 11:56:17;;;;;;;3.83;1.50;;;;;;;17.76;57.62;99468.16;1717942;81;20976;-48
2022/10/04 11:59:16;;;;;;;4.67;1.20;;;;;;;19.66;57.61;99468.23;1718626;81;21035;-44
2022/10/04 12:02:08;;;;;;;2.37;1.05;;;;;;;19.72;52.28;99466.86;1723139;81;21022;-45
2022/10/04 12:04:55;;;;;;;2.37;1.10;;;;;;;18.72;51.56;99476.95;1727425;82;21508;-47
2022/10/04 12:07:50;;;;;;;1.98;1.17;;;;;;;17.62;53.05;99474.09;1662563;83;21012;-52
2022/10/04 12:10:39;;;;;;;3.85;1.10;;;;;;;16.49;54.71;99471.48;1693854;83;20990;-47
2022/10/04 12:13:42;;;;;;;4.25;1.82;;;;;;;15.91;56.88;99473.25;1727281;82;20999;-48
2022/10/04 12:16:42;;;;;;;2.83;1.20;;;;;;;16.59;57.58;99485.38;1745121;81;20995;-49
2022/10/04 12:19:36;;;;;;;2.12;1.27;;;;;;;17.34;55.06;99484.81;1751087;78;20972;-46
2022/10/04 12:22:16;;;;;;;4.87;1.22;;;;;;;16.69;55.49;99482.37;1798226;79;21011;-49
2022/10/04 12:25:06;;;;;;;3.98;1.22;;;;;;;16.07;55.02;99479.59;1784185;79;21611;-49
2022/10/04 12:27:48;;;;;;;5.03;1.50;;;;;;;16.88;56.39;99477.36;1777554;78;21089;-53
2022/10/04 12:30:31;;;;;;;5.33;1.22;;;;;;;17.98;53.34;99480.55;1800651;78;21070;-47
2022/10/04 12:33:36;;;;;;;2.98;1.27;;;;;;;17.39;53.32;99472.46;1826130;77;21515;-47
2022/10/04 12:36:28;;;;;;;3.80;1.50;;;;;;;16.70;54.02;99480.94;1804217;78;21018;-46
2022/10/04 12:39:22;;;;;;;2.27;1.30;;;;;;;16.12;55.43;99481.42;1807473;78;21517;-52
2022/10/04 12:41:54;;;;;;;4.08;1.32;;;;;;;15.71;55.89;99492.77;1779176;78;21492;-44
2022/10/04 12:44:49;;;;;;;7.33;1.40;;;;;;;15.19;57.14;99489.94;1778595;80;21021;-53
2022/10/04 12:47:54;;;;;;;2.42;1.27;;;;;;;15.11;57.91;99486.48;1824799;78;21000;-54
2022/10/04 12:50:41;;;;;;;3.95;1.30;;;;;;;15.01;57.98;99496.06;1816400;78;21463;-46
2022/10/04 12:53:52;;;;;;;4.47;1.50;;;;;;;14.69;58.49;99493.84;1792775;77;21338;-50
2022/10/04 12:56:47;;;;;;;4.40;1.67;;;;;;;14.67;58.82;99490.94;1786238;78;21021;-45
2022/10/04 12:59:34;;;;;;;6.65;2.17;;;;;;;14.52;59.17;99498.95;1818332;78;21018;-53
2022/10/04 13:02:51;;;;;;;6.03;1.47;;;;;;;14.98;59.13;99503.72;1748868;79;21098;-46
2022/10/04 13:05:43;;;;;;;1.45;1.10;;;;;;;14.85;59.38;99504.22;1813409;78;21001;-51
2022/10/04 13:08:37;;;;;;;3.70;1.30;;;;;;;14.67;59.57;99500.20;1805706;78;21418;-52
2022/10/04 13:11:48;;;;;;;3.58;1.77;;;;;;;14.49;60.02;99499.63;1743547;80;20992;-49
2022/10/04 13:14:57;;;;;;;3.83;1.77;;;;;;;14.37;60.46;99503.48;1736547;80;21555;-51
2022/10/04 13:17:43;;;;;;;3.45;1.52;;;;;;;14.46;60.55;99498.51;1726165;81;21458;-50
2022/10/04 13:20:53;;;;;;;1.87;1.45;;;;;;;14.52;61.12;99496.78;1726830;81;21016;-50
2022/10/04 13:23:52;;;;;;;5.03;1.80;;;;;;;15.23;60.52;99500.67;1742073;80;21500;-47
2022/10/04 13:26:45;;;;;;;6.83;1.80;;;;;;;15.28;59.80;99497.68;1744958;80;21485;-49
2022/10/04 13:29:31;;;;;;;6.83;1.52;;;;;;;15.00;59.78;99497.48;1783068;79;21028;-55
2022/10/04 13:32:11;;;;;;;4.60;2.00;;;;;;;15.60;60.18;99491.88;1770417;78;20979;-53
2022/10/04 13:34:55;;;;;;;7.08;1.55;;;;;;;17.24;57.68;99492.66;1811371;78;21061;-46
2022/10/04 13:38:04;;;;;;;12.78;4.85;;;;;;;17.15;56.95;99492.06;1763757;78;21007;-53
2022/10/04 13:40:59;;;;;;;19.17;6.55;;;;;;;17.21;56.83;99490.27;1807643;78;21025;-51
2022/10/04 13:43:56;;;;;;;15.80;5.62;;;;;;;18.65;54.54;99492.64;1765718;80;21107;-46
2022/10/04 13:46:51;;;;;;;;;;;;;;;19.97;51.63;99482.81;1772889;77;21104;-50
2022/10/04 13:49:54;;;;;;;2.92;1.82;;;;;;;21.33;49.63;99495.52;1826881;77;20434;-49
2022/10/04 13:59:22;;;;;;;4.62;2.08;;;;;;;23.52;44.15;99511.81;1800305;77;21568;-51
2022/10/04 14:02:13;;;;;;;15.60;3.83;;;;;;;22.58;43.97;99512.17;1795207;78;21614;-52
2022/10/04 14:05:04;;;;;;;23.02;10.03;;;;;;;21.53;43.20;99515.02;1820033;78;21478;-47
2022/10/04 14:07:55;;;;;;;11.43;2.70;;;;;;;20.78;45.54;99512.36;1772295;77;20987;-49
2022/10/04 14:10:48;;;;;;;5.40;2.00;;;;;;;21.32;44.13;99517.42;1772898;78;21317;-51
2022/10/04 14:13:42;;;;;;;6.75;1.82;;;;;;;19.83;45.36;99509.45;1787968;79;21498;-47
2022/10/04 14:16:22;;;;;;;6.70;1.95;;;;;;;18.91;47.53;99512.22;1787701;79;20989;-51
2022/10/04 14:19:24;;;;;;;2.75;1.55;;;;;;;18.11;49.15;99514.47;1790578;79;21496;-48
2022/10/04 14:22:21;;;;;;;4.35;1.80;;;;;;;17.58;50.33;99519.20;1795282;77;21999;-50
2022/10/04 14:25:14;;;;;;;8.83;2.25;;;;;;;17.12;51.88;99524.22;1784622;79;21012;-50
2022/10/04 14:27:51;;;;;;;4.03;1.80;;;;;;;16.64;52.91;99523.04;1746667;81;20966;-55
2022/10/04 14:30:46;;;;;;;4.37;2.00;;;;;;;16.37;53.75;99524.66;1746795;81;20971;-53
2022/10/04 14:33:24;;;;;;;4.65;1.98;;;;;;;16.15;55.19;99520.13;1727477;81;21510;-49
2022/10/04 14:36:12;;;;;;;28.02;7.85;;;;;;;15.89;56.18;99521.09;1744429;81;21086;-48
2022/10/04 14:39:16;;;;;;;11.90;4.10;;;;;;;15.85;56.42;99520.13;1709429;83;21007;-49
2022/10/04 14:42:20;;;;;;;6.40;2.52;;;;;;;15.81;56.62;99524.81;1731935;82;21050;-50
2022/10/04 14:45:25;;;;;;;7.72;2.10;;;;;;;15.72;56.72;99514.36;1673013;83;21015;-52
2022/10/04 14:48:30;;;;;;;4.97;1.75;;;;;;;15.58;56.57;99515.84;1697995;83;21049;-44
2022/10/04 14:51:11;;;;;;;3.90;1.73;;;;;;;15.40;57.00;99518.49;1714755;82;21599;-48
2022/10/04 14:54:00;;;;;;;4.15;1.40;;;;;;;15.26;57.48;99530.94;1714776;81;21072;-46
2022/10/04 14:56:48;;;;;;;5.08;1.72;;;;;;;15.16;56.92;99533.86;1741275;81;21029;-54
2022/10/04 14:59:23;;;;;;;7.58;2.00;;;;;;;14.92;57.85;99530.64;1740769;81;20975;-43
2022/10/04 15:02:18;;;;;;;7.25;2.10;;;;;;;14.85;57.91;99533.34;1761958;77;20988;-48
2022/10/04 15:05:22;;;;;;;7.00;2.50;;;;;;;14.78;58.54;99534.23;1824332;77;21415;-50
2022/10/04 15:07:53;;;;;;;6.08;2.17;;;;;;;14.66;58.66;99535.10;1773425;79;21042;-47
2022/10/04 15:10:27;;;;;;;8.60;2.30;;;;;;;14.47;59.68;99535.94;1759421;80;21580;-51
2022/10/04 15:13:09;;;;;;;8.60;2.20;;;;;;;14.35;60.20;99533.17;1792239;79;20994;-51
2022/10/04 15:16:11;;;;;;;5.85;2.08;;;;;;;14.29;59.83;99534.89;1783200;79;21375;-48
2022/10/04 15:18:56;;;;;;;7.40;2.35;;;;;;;14.21;60.74;99530.12;1767534;78;21015;-53
2022/10/04 15:21:53;;;;;;;7.05;2.25;;;;;;;14.20;60.76;99533.70;1783906;79;21053;-49
2022/10/04 15:24:45;;;;;;;7.05;2.65;;;;;;;14.16;61.19;99534.86;1770282;79;21463;-48
2022/10/04 15:27:36;;;;;;;5.87;2.25;;;;;;;14.10;61.89;99536.59;1830058;78;21007;-52
2022/10/04 15:30:53;;;;;;;8.70;2.58;;;;;;;14.06;62.10;99546.14;1825052;78;21026;-47
2022/10/04 15:33:34;;;;;;;;;;;;;;;14.01;62.59;99543.33;1796547;78;20995;-53
2022/10/04 15:36:23;;;;;;;6.72;2.80;;;;;;;13.96;64.91;99547.23;1823067;77;20107;-49
2022/10/04 15:39:01;;;;;;;8.83;2.92;;;;;;;13.94;63.30;99545.16;1810908;77;21009;-48
2022/10/04 15:41:53;;;;;;;8.28;3.15;;;;;;;13.86;64.00;99551.41;1775068;79;20924;-51
2022/10/04 15:44:58;;;;;;;6.75;3.12;;;;;;;13.82;63.39;99550.30;1813508;78;21545;-50
2022/10/04 15:47:32;;;;;;;14.13;5.70;;;;;;;13.79;64.27;99551.81;1764979;80;20975;-52
2022/10/04 15:50:24;;;;;;;10.10;4.10;;;;;;;13.75;64.39;99549.00;1784644;79;21004;-51
2022/10/04 15:53:45;;;;;;;10.32;4.72;;;;;;;13.69;64.64;99553.34;1760316;80;20991;-49
2022/10/04 15:56:26;;;;;;;7.45;4.50;;;;;;;13.64;64.91;99551.46;1704122;81;21037;-47
2022/10/04 15:59:18;;;;;;;10.20;5.22;;;;;;;13.53;66.56;99556.58;1712009;81;21037;-47
2022/10/04 16:02:09;;;;;;;14.93;4.47;;;;;;;13.51;65.67;99561.96;1716944;81;20998;-43
2022/10/04 16:05:06;;;;;;;14.40;4.47;;;;;;;13.46;66.12;99560.08;1833116;78;21006;-51
2022/10/04 16:07:45;;;;;;;;;;;;;;;13.42;66.50;99566.50;1789700;78;21006;-52
2022/10/04 16:10:20;;;;;;;10.18;4.72;;;;;;;13.32;69.41;99562.28;1778090;79;20402;-51
2022/10/04 16:13:17;;;;;;;10.05;4.92;;;;;;;13.27;68.29;99562.16;1821747;77;20990;-44
2022/10/04 16:15:49;;;;;;;28.05;13.38;;;;;;;13.21;67.54;99568.67;1784121;77;21364;-50
2022/10/04 16:18:53;;;;;;;13.78;6.30;;;;;;;13.13;69.21;99573.56;1801971;78;20978;-50
2022/10/04 16:21:48;;;;;;;10.72;4.35;;;;;;;13.08;70.07;99575.63;1801356;78;21010;-53
2022/10/04 16:24:23;;;;;;;16.97;4.10;;;;;;;13.02;70.29;99580.38;1793743;79;21048;-52
2022/10/04 16:26:55;;;;;;;15.83;4.00;;;;;;;12.96;69.15;99585.16;1830615;77;20991;-50
2022/10/04 16:29:39;;;;;;;17.12;3.80;;;;;;;12.88;70.45;99588.27;1771815;78;20981;-48
2022/10/04 16:32:38;;;;;;;13.22;3.72;;;;;;;12.84;70.69;99584.97;1817916;77;20988;-42
2022/10/04 16:35:28;;;;;;;8.85;3.42;;;;;;;12.81;70.25;99588.26;1803694;77;21006;-52
2022/10/04 16:38:14;;;;;;;10.15;3.98;;;;;;;12.76;70.91;99590.31;1772366;79;20978;-49
2022/10/04 16:41:08;;;;;;;17.52;8.83;;;;;;;12.70;70.85;99598.13;1791904;79;21605;-50
2022/10/04 16:43:37;;;;;;;16.42;4.50;;;;;;;12.68;70.38;99600.86;1783358;79;20982;-47
2022/10/04 16:46:29;;;;;;;8.05;4.08;;;;;;;12.63;71.29;99600.75;1800105;78;21004;-47
2022/10/04 16:49:12;;;;;;;12.60;3.92;;;;;;;12.58;71.56;99595.73;1826065;78;20995;-47
2022/10/04 16:52:23;;;;;;;10.25;4.55;;;;;;;12.55;70.96;99601.20;1762756;79;21010;-46
2022/10/04 16:55:02;;;;;;;12.98;4.05;;;;;;;12.48;71.96;99602.02;1755283;80;21438;-44
2022/10/04 16:57:29;;;;;;;14.18;4.58;;;;;;;12.41;72.30;99601.16;1772755;78;21034;-51
2022/10/04 17:00:19;;;;;;;14.05;3.58;;;;;;;12.37;72.96;99607.52;1781681;78;21027;-53
2022/10/04 17:02:57;;;;;;;12.93;4.22;;;;;;;12.30;73.75;99601.77;1759560;79;20995;-47
2022/10/04 17:05:46;;;;;;;8.05;3.95;;;;;;;12.27;72.79;99612.48;1753559;80;20966;-48
2022/10/04 17:08:17;;;;;;;13.10;4.10;;;;;;;12.20;72.69;99608.02;1764884;80;21008;-49
2022/10/04 17:11:06;;;;;;;13.48;3.60;;;;;;;12.11;74.04;99603.27;1775858;80;21527;-48
2022/10/04 17:13:50;;;;;;;11.90;4.00;;;;;;;12.09;73.72;99609.95;1769219;79;21483;-52
2022/10/04 17:16:38;;;;;;;9.25;3.87;;;;;;;12.06;73.92;99607.95;1764436;79;21185;-48
2022/10/04 17:19:21;;;;;;;7.83;3.92;;;;;;;12.00;74.01;99609.15;1771975;78;21035;-45
2022/10/04 17:22:05;;;;;;;12.82;4.53;;;;;;;11.96;74.62;99608.95;1778460;80;21073;-49
2022/10/04 17:24:42;;;;;;;10.32;4.03;;;;;;;11.92;74.93;99614.49;1760775;79;21050;-42
2022/10/04 17:27:36;;;;;;;15.32;5.30;;;;;;;11.89;74.84;99615.46;1777872;80;21050;-52
2022/10/04 17:30:25;;;;;;;9.03;4.97;;;;;;;11.85;74.80;99615.25;1769741;79;20999;-49
2022/10/04 17:33:21;;;;;;;13.62;6.85;;;;;;;11.84;75.15;99618.81;1777442;80;21066;-44
2022/10/04 17:35:55;;;;;;;17.17;6.40;;;;;;;11.76;75.28;99612.66;1764479;79;20987;-45
2022/10/04 17:38:32;;;;;;;11.55;5.47;;;;;;;11.70;75.56;99622.23;1762180;79;20979;-47
2022/10/04 17:41:28;;;;;;;14.83;5.95;;;;;;;11.67;76.10;99621.06;1781372;80;21495;-53
2022/10/04 17:44:32;;;;;;;13.98;7.33;;;;;;;11.62;76.39;99614.72;1770746;79;21014;-51
2022/10/04 17:56:06;;;;;;;15.95;7.45;;;;;;;11.43;77.65;99619.30;1793252;80;21527;-49
2022/10/04 17:58:40;;;;;;;23.75;8.50;;;;;;;11.37;78.48;99621.80;1782126;79;21096;-53
2022/10/04 18:01:14;;;;;;;14.18;7.58;;;;;;;11.33;78.73;99622.88;1799919;77;21031;-46
2022/10/04 18:03:53;;;;;;;14.53;7.87;;;;;;;11.33;77.81;99624.19;1798431;77;21058;-51
2022/10/04 18:06:36;;;;;;;16.00;8.03;;;;;;;11.28;78.35;99623.12;1804176;77;20988;-45
2022/10/04 18:09:13;;;;;;;18.00;7.92;;;;;;;11.26;79.21;99626.31;1808150;78;21536;-53
2022/10/04 18:11:56;;;;;;;22.40;9.05;;;;;;;11.20;80.00;99631.88;1772111;79;21018;-47
2022/10/04 18:15:09;;;;;;;22.02;9.18;;;;;;;11.18;79.30;99633.75;1758070;80;21046;-46
2022/10/04 18:17:45;;;;;;;18.17;9.73;;;;;;;11.14;79.38;99637.00;1773582;80;21085;-50
2022/10/04 18:20:31;;;;;;;19.82;9.33;;;;;;;11.09;78.79;99639.02;1772152;79;21007;-45
2022/10/04 18:23:23;;;;;;;18.48;9.18;;;;;;;11.06;79.89;99645.78;1771188;79;21472;-48
2022/10/04 18:26:03;;;;;;;19.48;9.58;;;;;;;11.04;79.97;99648.09;1786989;80;21485;-46
2022/10/04 18:28:33;;;;;;;19.25;8.78;;;;;;;10.99;80.17;99647.47;1762691;80;21034;-51
2022/10/04 18:30:59;;;;;;;22.37;9.13;;;;;;;10.89;80.83;99649.25;1759052;79;20999;-47
2022/10/04 18:33:45;;;;;;;19.73;9.78;;;;;;;10.92;79.90;99648.27;1747558;80;21025;-54
2022/10/04 18:36:26;;;;;;;19.17;9.03;;;;;;;10.87;79.95;99652.43;1765542;79;20995;-48
2022/10/04 18:39:15;;;;;;;24.67;9.85;;;;;;;10.85;79.82;99654.77;1752028;80;20995;-52
2022/10/04 18:42:04;;;;;;;22.17;10.48;;;;;;;10.86;80.21;99661.71;1765784;79;21010;-54
2022/10/04 18:44:58;;;;;;;22.62;10.65;;;;;;;10.82;80.20;99664.96;1754772;80;21022;-50
2022/10/04 18:47:35;;;;;;;26.15;12.15;;;;;;;10.83;80.37;99671.09;1778613;79;21475;-55
2022/10/04 18:50:21;;;;;;;22.52;10.80;;;;;;;10.80;80.34;99672.55;1745746;80;21083;-48
2022/10/04 18:53:06;;;;;;;28.85;11.55;;;;;;;10.78;80.20;99679.68;1746499;82;21517;-50
2022/10/04 18:55:51;;;;;;;24.37;10.08;;;;;;;10.74;80.30;99685.08;1764214;79;21010;-51
2022/10/04 19:02:19;;;;;;;22.42;9.60;;;;;;;10.67;80.17;99680.21;1727041;82;21493;-42
2022/10/04 19:05:13;;;;;;;26.17;9.90;;;;;;;10.63;80.06;99683.45;1763351;79;21037;-45
2022/10/04 19:08:11;;;;;;;19.62;9.68;;;;;;;10.63;79.96;99682.61;1780742;79;21015;-51
2022/10/04 19:10:45;;;;;;;21.85;9.38;;;;;;;10.58;80.16;99685.45;1784753;79;21022;-51
2022/10/04 19:13:44;;;;;;;17.37;9.88;;;;;;;10.56;80.82;99684.68;1758901;79;21054;-46
2022/10/04 19:16:15;;;;;;;24.05;10.95;;;;;;;10.55;80.43;99692.16;1741992;81;21071;-49
2022/10/04 19:19:17;;;;;;;22.45;11.40;;;;;;;10.51;80.87;99691.94;1735284;82;21574;-47
2022/10/04 19:22:09;;;;;;;26.30;11.33;;;;;;;10.46;80.97;99695.25;1745537;80;21004;-52
2022/10/04 19:24:42;;;;;;;25.08;11.78;;;;;;;10.44;81.20;99697.10;1744629;80;21016;-49
2022/10/04 19:27:28;;;;;;;22.85;11.22;;;;;;;10.39;80.70;99699.97;1781618;80;21444;-50
2022/10/04 19:30:14;;;;;;;23.23;12.07;;;;;;;10.36;80.79;99701.42;1746434;79;20986;-49
2022/10/04 19:33:03;;;;;;;23.90;11.43;;;;;;;10.31;81.65;99697.68;1759292;80;20986;-44
2022/10/04 19:36:04;;;;;;;22.25;11.00;;;;;;;10.29;82.43;99701.29;1776480;80;21007;-45
2022/10/04 19:38:41;;;;;;;22.85;10.40;;;;;;;10.29;81.65;99703.45;1777006;79;21002;-50
2022/10/04 19:41:26;;;;;;;;;;;;;;;10.23;82.42;99702.44;1774432;79;21449;-54
2022/10/04 19:44:22;;;;;;;37.23;18.60;;;;;;;10.20;82.58;99710.45;1780088;80;20401;-42
2022/10/04 19:47:31;;;;;;;29.67;13.25;;;;;;;10.17;82.41;99711.47;1775488;80;21065;-47
2022/10/04 19:50:03;;;;;;;28.15;10.60;;;;;;;10.16;82.12;99701.86;1771165;79;20984;-51
2022/10/04 19:52:59;;;;;;;17.95;10.25;;;;;;;10.15;81.57;99711.13;1769394;80;21089;-47
2022/10/04 19:55:42;;;;;;;20.10;9.20;;;;;;;10.12;82.85;99715.23;1757423;79;21531;-50
2022/10/04 19:58:20;;;;;;;22.48;8.70;;;;;;;10.10;82.50;99710.05;1785524;80;21439;-45
2022/10/04 20:00:45;;;;;;;;;;;;;;;10.09;82.34;99706.17;1779930;80;21041;-45
2022/10/04 20:03:11;;;;;;;18.15;8.18;;;;;;;10.05;83.30;99707.25;1779179;80;20143;-46
2022/10/04 20:05:50;;;;;;;14.68;7.72;;;;;;;10.08;82.15;99712.37;1765856;79;21050;-46
2022/10/04 20:08:47;;;;;;;16.87;7.70;;;;;;;10.05;82.63;99715.97;1754041;80;21013;-50
2022/10/04 20:11:18;;;;;;;17.80;7.47;;;;;;;10.01;82.96;99717.52;1773657;79;21014;-53
2022/10/04 20:14:00;;;;;;;19.05;7.50;;;;;;;9.96;83.42;99723.81;1770315;80;21015;-51
2022/10/04 20:16:56;;;;;;;34.15;12.98;;;;;;;9.93;83.51;99718.72;1772993;80;21009;-51
2022/10/04 20:19:30;;;;;;;21.85;9.93;;;;;;;9.88;83.58;99725.95;1741899;81;21040;-49
2022/10/04 20:22:15;;;;;;;16.07;8.88;;;;;;;9.89;83.51;99726.80;1756702;79;21011;-41
2022/10/04 20:24:48;;;;;;;19.37;8.75;;;;;;;9.90;82.96;99731.14;1759858;79;21145;-54
2022/10/04 20:27:29;;;;;;;15.23;8.10;;;;;;;9.87;83.26;99733.89;1774144;79;21061;-45
2022/10/04 20:30:03;;;;;;;23.92;8.55;;;;;;;9.87;83.30;99737.37;1773675;80;21015;-43
2022/10/04 20:32:35;;;;;;;20.30;8.05;;;;;;;9.84;84.03;99723.08;1770965;80;21066;-48
2022/10/04 20:35:16;;;;;;;18.65;8.08;;;;;;;9.84;83.68;99725.70;1758499;79;21054;-50
2022/10/04 20:37:57;;;;;;;17.80;8.48;;;;;;;9.80;83.58;99727.62;1760319;79;21018;-51
2022/10/04 20:40:40;;;;;;;20.97;8.00;;;;;;;9.74;84.15;99725.72;1762823;79;20994;-46
2022/10/04 20:43:21;;;;;;;17.35;8.13;;;;;;;9.68;84.78;99725.97;1775838;79;21514;-49
2022/10/04 20:46:00;;;;;;;16.93;8.53;;;;;;;9.63;84.80;99727.98;1744911;80;21008;-49
2022/10/04 20:48:23;;;;;;;20.88;8.55;;;;;;;9.59;85.49;99733.36;1747017;80;20989;-54
2022/10/04 20:50:51;;;;;;;19.27;8.10;;;;;;;9.61;85.25;99738.08;1744453;81;21067;-45
2022/10/04 20:53:21;;;;;;;;;;;;;;;9.67;84.35;99739.58;1760855;81;21028;-45
2022/10/04 20:55:49;;;;;;;16.27;8.98;;;;;;;9.63;85.58;99746.36;1745611;80;20116;-55
2022/10/04 20:58:31;;;;;;;13.15;8.13;;;;;;;9.64;85.10;99748.05;1762288;80;21057;-49
2022/10/04 21:01:12;;;;;;;18.55;8.40;;;;;;;9.61;85.74;99748.58;1751891;81;21035;-52
2022/10/04 21:03:29;;;;;;;19.35;8.58;;;;;;;9.64;85.20;99742.80;1757170;80;21032;-52
2022/10/04 21:06:08;;;;;;;17.20;9.13;;;;;;;9.62;86.01;99749.42;1767024;79;21500;-46
2022/10/04 21:08:36;;;;;;;23.70;9.03;;;;;;;9.64;86.47;99743.67;1766930;79;21519;-49
2022/10/04 21:11:09;;;;;;;19.57;8.75;;;;;;;9.66;86.67;99740.95;1764884;80;21002;-54
2022/10/04 21:13:44;;;;;;;20.12;8.43;;;;;;;9.68;86.49;99740.41;1743000;80;21020;-51
2022/10/04 21:16:10;;;;;;;16.70;8.88;;;;;;;9.69;86.69;99742.14;1746132;80;21124;-54
2022/10/04 21:18:35;;;;;;;24.57;10.05;;;;;;;9.71;86.92;99742.91;1760672;79;20986;-45
2022/10/04 21:21:01;;;;;;;22.40;10.28;;;;;;;9.72;86.63;99741.54;1783355;80;21018;-52
2022/10/04 21:23:33;;;;;;;21.23;10.10;;;;;;;9.76;87.36;99737.00;1766407;79;21065;-46
2022/10/04 21:26:21;;;;;;;23.05;9.30;;;;;;;9.78;86.92;99729.91;1763865;80;21017;-49
2022/10/04 21:28:56;;;;;;;26.52;11.08;;;;;;;9.80;86.59;99735.94;1780079;79;20990;-47
2022/10/04 21:31:22;;;;;;;26.20;10.82;;;;;;;9.82;87.18;99739.34;1769035;79;21081;-52
2022/10/04 21:33:48;;;;;;;18.77;10.08;;;;;;;9.85;86.71;99740.53;1743249;80;21561;-47
2022/10/04 21:36:13;;;;;;;22.70;10.53;;;;;;;9.88;86.59;99743.03;1742450;81;20988;-51
2022/10/04 21:38:39;;;;;;;20.05;10.68;;;;;;;9.94;86.08;99736.64;1702735;83;21074;-47
2022/10/04 21:41:06;;;;;;;27.82;11.18;;;;;;;9.96;86.34;99740.05;1718751;81;20992;-51
2022/10/04 21:43:32;;;;;;;21.05;10.95;;;;;;;9.99;86.55;99745.17;1754835;81;21025;-50
2022/10/04 21:45:58;;;;;;;30.17;12.23;;;;;;;9.99;86.61;99743.38;1754561;81;21054;-53
2022/10/04 21:48:25;;;;;;;31.02;13.05;;;;;;;10.01;85.97;99745.11;1747054;80;21040;-46
2022/10/04 21:50:53;;;;;;;33.73;14.07;;;;;;;10.03;85.61;99734.06;1743591;81;21048;-51
2022/10/04 21:53:20;;;;;;;20.80;12.35;;;;;;;10.04;86.34;99737.06;1749663;80;21063;-44
2022/10/04 21:55:46;;;;;;;26.93;13.88;;;;;;;10.05;85.87;99741.41;1737541;80;21486;-49
2022/10/04 21:58:12;;;;;;;25.30;13.88;;;;;;;10.04;85.81;99751.07;1739259;80;21549;-52
2022/10/04 22:00:38;;;;;;;30.52;14.10;;;;;;;10.06;85.99;99757.55;1739128;81;21033;-49
2022/10/04 22:03:04;;;;;;;31.25;14.90;;;;;;;10.04;86.33;99764.21;1736828;80;21751;-47
2022/10/04 22:05:30;;;;;;;30.77;15.20;;;;;;;10.04;86.41;99769.91;1751523;81;21111;-49
2022/10/04 22:07:57;;;;;;;30.68;15.00;;;;;;;10.06;85.80;99768.05;1746255;82;21010;-50
2022/10/04 22:10:23;;;;;;;36.60;15.63;;;;;;;10.03;85.72;99767.75;1725811;83;21049;-51
2022/10/04 22:12:49;;;;;;;33.85;14.70;;;;;;;10.01;85.99;99767.44;1741957;82;21008;-49
2022/10/04 22:15:16;;;;;;;28.37;14.83;;;;;;;10.01;86.00;99767.44;1741302;80;21009;-51
2022/10/04 22:17:41;;;;;;;32.13;14.58;;;;;;;10.00;86.35;99769.19;1745391;81;21668;-47
2022/10/04 22:20:08;;;;;;;37.63;15.55;;;;;;;10.01;86.21;99777.95;1724716;82;21040;-49
